Time;durP1;ratioP1;P1;durP2;ratioP2;P2;SDS_P1;SDS_P2;PMS_P1;PMS_P2;Temp;Humidity;BMP_temperature;BMP_pressure;BME280_temperature;BME280_humidity;BME280_pressure;Samples;Min_cycle;Max_cycle;Signal;HPM_P1;HPM_P2
2023/09/05 00:00:10;;;;;;;131.95;77.28;;;;;;;;;;4990808;28;20053;-65
2023/09/05 00:02:38;;;;;;;138.07;79.32;;;;;;;;;;4996338;28;20511;-65
2023/09/05 00:05:07;;;;;;;129.38;80.35;;;;;;;;;;4998996;28;20050;-65
2023/09/05 00:07:35;;;;;;;139.80;82.68;;;;;;;;;;4997807;28;20046;-67
2023/09/05 00:10:03;;;;;;;138.43;82.20;;;;;;;;;;4999635;28;20538;-64
2023/09/05 00:12:30;;;;;;;140.02;79.93;;;;;;;;;;5010592;28;20022;-66
2023/09/05 00:15:18;;;;;;;136.75;79.72;;;;;;;;;;5006901;28;20213;-63
2023/09/05 00:17:44;;;;;;;142.15;81.07;;;;;;;;;;4997859;28;20030;-66
2023/09/05 00:20:15;;;;;;;134.30;80.05;;;;;;;;;;4989107;28;20064;-65
2023/09/05 00:23:00;;;;;;;136.85;79.03;;;;;;;;;;4950217;28;20859;-64
2023/09/05 00:25:27;;;;;;;139.85;80.90;;;;;;;;;;4949963;28;20099;-64
2023/09/05 00:27:54;;;;;;;136.60;79.63;;;;;;;;;;4950655;28;20034;-65
2023/09/05 00:30:22;;;;;;;129.63;79.20;;;;;;;;;;4951503;28;20043;-64
2023/09/05 00:32:48;;;;;;;141.55;78.82;;;;;;;;;;4946884;28;20235;-63
2023/09/05 00:35:15;;;;;;;136.95;79.20;;;;;;;;;;4949100;28;20646;-64
2023/09/05 00:37:42;;;;;;;132.02;78.43;;;;;;;;;;4949316;28;20035;-63
2023/09/05 00:40:09;;;;;;;132.25;78.80;;;;;;;;;;4949084;28;20585;-63
2023/09/05 00:42:36;;;;;;;141.25;81.15;;;;;;;;;;4948611;28;20629;-64
2023/09/05 00:45:03;;;;;;;139.57;82.75;;;;;;;;;;4947538;28;20464;-66
2023/09/05 00:47:30;;;;;;;138.27;80.53;;;;;;;;;;4948786;28;20121;-71
2023/09/05 00:49:57;;;;;;;142.73;83.38;;;;;;;;;;4949097;28;20482;-65
2023/09/05 00:52:25;;;;;;;139.05;81.90;;;;;;;;;;4936834;28;20118;-66
2023/09/05 00:54:54;;;;;;;135.88;82.32;;;;;;;;;;4981943;28;20057;-66
2023/09/05 00:57:21;;;;;;;137.32;81.03;;;;;;;;;;4992565;28;20034;-66
2023/09/05 00:59:48;;;;;;;136.30;81.05;;;;;;;;;;4990852;28;20498;-65
2023/09/05 01:02:15;;;;;;;137.68;82.43;;;;;;;;;;4990342;28;20046;-63
2023/09/05 01:04:43;;;;;;;141.65;81.40;;;;;;;;;;4983832;28;21142;-62
2023/09/05 01:07:09;;;;;;;141.60;83.40;;;;;;;;;;4991769;28;20515;-63
2023/09/05 01:09:36;;;;;;;142.98;84.40;;;;;;;;;;4989280;28;20369;-65
2023/09/05 01:12:02;;;;;;;144.52;83.90;;;;;;;;;;4991624;28;20449;-66
2023/09/05 01:14:29;;;;;;;142.45;84.55;;;;;;;;;;4990120;28;20045;-66
2023/09/05 01:17:01;;;;;;;144.85;82.78;;;;;;;;;;4991140;28;20049;-67
2023/09/05 01:19:30;;;;;;;141.88;84.18;;;;;;;;;;4988986;28;20755;-63
2023/09/05 01:21:57;;;;;;;139.82;82.45;;;;;;;;;;4990302;28;20160;-67
2023/09/05 01:24:24;;;;;;;136.60;82.13;;;;;;;;;;4987305;28;20087;-67
2023/09/05 01:26:51;;;;;;;140.77;82.63;;;;;;;;;;4972377;28;20088;-69
2023/09/05 01:29:25;;;;;;;148.57;86.70;;;;;;;;;;4973660;28;20816;-67
2023/09/05 01:31:53;;;;;;;150.93;87.97;;;;;;;;;;4996929;28;20050;-66
2023/09/05 01:34:20;;;;;;;148.20;84.75;;;;;;;;;;4990544;28;20686;-65
2023/09/05 01:36:46;;;;;;;144.88;84.82;;;;;;;;;;4989398;28;20545;-66
2023/09/05 01:39:13;;;;;;;141.45;85.05;;;;;;;;;;4990531;28;20542;-64
2023/09/05 01:41:40;;;;;;;144.02;84.95;;;;;;;;;;4988017;28;20554;-65
2023/09/05 01:44:06;;;;;;;145.32;86.47;;;;;;;;;;4959593;28;20044;-65
2023/09/05 01:46:33;;;;;;;146.13;85.18;;;;;;;;;;4989698;28;20549;-65
2023/09/05 01:49:00;;;;;;;150.02;87.82;;;;;;;;;;4988591;28;20066;-65
2023/09/05 01:51:26;;;;;;;153.27;86.90;;;;;;;;;;4989185;28;20049;-64
2023/09/05 01:53:53;;;;;;;158.75;88.68;;;;;;;;;;4988197;28;20143;-66
2023/09/05 01:56:19;;;;;;;149.18;88.18;;;;;;;;;;4989424;28;20461;-65
2023/09/05 01:58:46;;;;;;;161.68;90.50;;;;;;;;;;4988818;28;20384;-65
2023/09/05 02:01:13;;;;;;;153.23;93.95;;;;;;;;;;4989022;28;20046;-65
2023/09/05 02:03:39;;;;;;;158.02;92.85;;;;;;;;;;4986187;28;20602;-65
2023/09/05 02:06:06;;;;;;;160.52;97.47;;;;;;;;;;4990666;28;20069;-65
2023/09/05 02:08:36;;;;;;;161.85;95.20;;;;;;;;;;4990381;28;20069;-65
2023/09/05 02:11:03;;;;;;;167.52;95.63;;;;;;;;;;4992408;28;20033;-64
2023/09/05 02:13:30;;;;;;;164.18;97.88;;;;;;;;;;4971374;28;20041;-64
2023/09/05 02:15:57;;;;;;;171.25;98.38;;;;;;;;;;4992131;28;20407;-65
2023/09/05 02:18:23;;;;;;;173.63;102.32;;;;;;;;;;4990082;28;20136;-64
2023/09/05 02:20:50;;;;;;;166.48;96.30;;;;;;;;;;4988743;28;20064;-64
2023/09/05 02:23:17;;;;;;;179.63;99.97;;;;;;;;;;4987989;28;20045;-64
2023/09/05 02:25:43;;;;;;;168.77;96.88;;;;;;;;;;4987789;28;20787;-63
2023/09/05 02:28:10;;;;;;;162.25;94.97;;;;;;;;;;4990027;28;20513;-64
2023/09/05 02:30:40;;;;;;;164.98;97.70;;;;;;;;;;4988876;28;20123;-64
2023/09/05 02:33:08;;;;;;;171.85;100.47;;;;;;;;;;4988098;28;20065;-64
2023/09/05 02:35:35;;;;;;;170.90;100.78;;;;;;;;;;4987805;28;20084;-65
2023/09/05 02:38:01;;;;;;;167.43;99.70;;;;;;;;;;4989420;28;20041;-65
2023/09/05 02:40:28;;;;;;;162.05;97.07;;;;;;;;;;4987453;28;20026;-67
2023/09/05 02:42:55;;;;;;;162.23;96.35;;;;;;;;;;4989887;28;20050;-66
2023/09/05 02:45:22;;;;;;;168.73;100.18;;;;;;;;;;4976998;28;20034;-64
2023/09/05 02:47:48;;;;;;;176.50;102.63;;;;;;;;;;4989224;28;20049;-64
2023/09/05 02:50:15;;;;;;;162.95;95.78;;;;;;;;;;4990471;28;20053;-64
2023/09/05 02:52:41;;;;;;;172.20;96.28;;;;;;;;;;4989389;28;20040;-65
2023/09/05 02:55:09;;;;;;;166.07;96.88;;;;;;;;;;4989965;28;20821;-66
2023/09/05 02:57:35;;;;;;;158.88;95.03;;;;;;;;;;4990161;28;21303;-66
2023/09/05 03:00:04;;;;;;;164.15;96.28;;;;;;;;;;4990222;28;21161;-64
2023/09/05 03:02:31;;;;;;;166.95;96.80;;;;;;;;;;4990327;28;20052;-65
2023/09/05 03:04:58;;;;;;;162.63;95.22;;;;;;;;;;4991384;28;20038;-63
2023/09/05 03:07:24;;;;;;;170.70;98.78;;;;;;;;;;4990849;28;20034;-64
2023/09/05 03:09:51;;;;;;;169.77;98.72;;;;;;;;;;4989060;28;20053;-63
2023/09/05 03:12:18;;;;;;;175.60;96.00;;;;;;;;;;4991008;28;20046;-63
2023/09/05 03:14:45;;;;;;;170.73;98.45;;;;;;;;;;4987787;28;20434;-63
2023/09/05 03:17:12;;;;;;;174.68;98.18;;;;;;;;;;4989162;28;20483;-64
2023/09/05 03:19:40;;;;;;;172.90;97.85;;;;;;;;;;4986909;28;20042;-64
2023/09/05 03:22:07;;;;;;;167.30;97.72;;;;;;;;;;4989040;28;20112;-64
2023/09/05 03:24:35;;;;;;;162.57;96.15;;;;;;;;;;4987297;28;20045;-65
2023/09/05 03:27:03;;;;;;;160.75;96.88;;;;;;;;;;4989069;28;20682;-64
2023/09/05 03:29:29;;;;;;;177.02;100.85;;;;;;;;;;4988408;28;20046;-63
2023/09/05 03:31:56;;;;;;;164.45;96.95;;;;;;;;;;4989015;28;20095;-63
2023/09/05 03:34:22;;;;;;;174.88;98.18;;;;;;;;;;4992360;28;20129;-63
2023/09/05 03:36:49;;;;;;;172.10;98.72;;;;;;;;;;4992526;28;20569;-64
2023/09/05 03:39:16;;;;;;;171.20;100.88;;;;;;;;;;4992387;28;20081;-62
2023/09/05 03:41:43;;;;;;;176.40;101.22;;;;;;;;;;4991967;28;20073;-64
2023/09/05 03:44:10;;;;;;;175.25;101.20;;;;;;;;;;4992152;28;20557;-64
2023/09/05 03:46:36;;;;;;;176.50;99.45;;;;;;;;;;4992360;28;20297;-63
2023/09/05 03:49:03;;;;;;;178.02;102.43;;;;;;;;;;4991090;28;20077;-64
2023/09/05 03:51:32;;;;;;;178.90;101.32;;;;;;;;;;4990641;28;20041;-63
2023/09/05 03:53:59;;;;;;;173.20;102.65;;;;;;;;;;4991689;28;20517;-64
2023/09/05 03:56:26;;;;;;;171.60;100.75;;;;;;;;;;4973081;28;20725;-64
2023/09/05 03:58:52;;;;;;;182.65;101.80;;;;;;;;;;4992169;28;20498;-64
2023/09/05 04:01:19;;;;;;;173.05;101.32;;;;;;;;;;4976273;28;20073;-63
2023/09/05 04:03:46;;;;;;;178.75;98.25;;;;;;;;;;4988251;28;20104;-64
2023/09/05 04:06:13;;;;;;;173.35;99.97;;;;;;;;;;4991207;28;21025;-63
2023/09/05 04:08:40;;;;;;;177.88;99.47;;;;;;;;;;4992705;28;20087;-64
2023/09/05 04:11:06;;;;;;;173.32;95.85;;;;;;;;;;5006257;28;20068;-65
2023/09/05 04:13:33;;;;;;;166.80;97.82;;;;;;;;;;5006682;28;20037;-64
2023/09/05 04:16:05;;;;;;;172.05;100.47;;;;;;;;;;4989915;28;20042;-65
2023/09/05 04:18:31;;;;;;;172.32;99.03;;;;;;;;;;4991666;28;20046;-66
2023/09/05 04:20:58;;;;;;;174.60;100.57;;;;;;;;;;4992656;28;20782;-65
2023/09/05 04:23:25;;;;;;;172.35;100.00;;;;;;;;;;4992391;28;20199;-65
2023/09/05 04:25:59;;;;;;;177.23;99.47;;;;;;;;;;4993135;28;20403;-63
2023/09/05 04:28:27;;;;;;;164.20;97.13;;;;;;;;;;4990924;28;20466;-61
2023/09/05 04:30:55;;;;;;;164.68;98.05;;;;;;;;;;4991039;28;20045;-63
2023/09/05 04:33:31;;;;;;;167.13;98.82;;;;;;;;;;4991892;28;20426;-62
2023/09/05 04:35:58;;;;;;;171.07;98.13;;;;;;;;;;5005538;28;20046;-63
2023/09/05 04:38:25;;;;;;;168.73;93.88;;;;;;;;;;5016543;28;20093;-63
2023/09/05 04:40:52;;;;;;;170.93;98.10;;;;;;;;;;5006041;28;20038;-63
2023/09/05 04:43:18;;;;;;;162.20;94.55;;;;;;;;;;4998076;28;20044;-62
2023/09/05 04:45:55;;;;;;;172.43;95.75;;;;;;;;;;4995212;28;20066;-64
2023/09/05 04:48:22;;;;;;;167.57;95.28;;;;;;;;;;5005176;28;20513;-64
2023/09/05 04:50:48;;;;;;;172.65;97.50;;;;;;;;;;4992021;28;20411;-64
2023/09/05 04:53:15;;;;;;;173.88;96.05;;;;;;;;;;4992206;28;20060;-62
2023/09/05 04:55:42;;;;;;;163.05;93.93;;;;;;;;;;4991108;28;20050;-63
2023/09/05 04:58:11;;;;;;;163.77;94.18;;;;;;;;;;4993163;28;20041;-65
2023/09/05 05:00:39;;;;;;;170.30;95.18;;;;;;;;;;4991858;28;20046;-63
2023/09/05 05:03:05;;;;;;;156.88;89.38;;;;;;;;;;4992514;28;20117;-64
2023/09/05 05:05:32;;;;;;;155.73;91.72;;;;;;;;;;4990310;28;20418;-63
2023/09/05 05:07:58;;;;;;;172.82;91.20;;;;;;;;;;4991367;28;20479;-64
2023/09/05 05:10:45;;;;;;;165.48;92.95;;;;;;;;;;4964595;28;20042;-64
2023/09/05 05:13:33;;;;;;;160.90;90.90;;;;;;;;;;4946345;28;21622;-64
2023/09/05 05:16:00;;;;;;;162.52;91.30;;;;;;;;;;4950658;28;20046;-62
2023/09/05 05:18:26;;;;;;;155.73;90.25;;;;;;;;;;4949279;28;20443;-64
2023/09/05 05:20:53;;;;;;;160.93;90.53;;;;;;;;;;4948472;28;20351;-64
2023/09/05 05:23:20;;;;;;;152.45;90.78;;;;;;;;;;4950098;28;22241;-64
2023/09/05 05:25:46;;;;;;;154.43;90.63;;;;;;;;;;4948603;28;20030;-65
2023/09/05 05:28:13;;;;;;;162.90;93.35;;;;;;;;;;4931921;28;20083;-62
2023/09/05 05:30:40;;;;;;;154.63;89.88;;;;;;;;;;4948250;28;20057;-61
2023/09/05 05:33:07;;;;;;;159.68;91.50;;;;;;;;;;4949112;28;20504;-62
2023/09/05 05:35:34;;;;;;;153.25;90.90;;;;;;;;;;4947222;28;20076;-63
2023/09/05 05:38:00;;;;;;;164.98;91.43;;;;;;;;;;4948578;28;20196;-64
2023/09/05 05:40:47;;;;;;;159.88;89.15;;;;;;;;;;4912209;28;20044;-64
2023/09/05 05:43:13;;;;;;;156.63;87.72;;;;;;;;;;4908325;28;20050;-64
2023/09/05 05:45:40;;;;;;;161.10;92.78;;;;;;;;;;4943144;28;20042;-63
2023/09/05 05:48:08;;;;;;;158.23;90.82;;;;;;;;;;4958607;28;20042;-64
2023/09/05 05:50:35;;;;;;;157.23;88.93;;;;;;;;;;4967900;28;20038;-64
2023/09/05 05:53:02;;;;;;;161.90;87.55;;;;;;;;;;4968665;28;20065;-62
2023/09/05 05:55:28;;;;;;;155.20;88.80;;;;;;;;;;4967744;28;20057;-64
2023/09/05 05:57:55;;;;;;;149.30;86.78;;;;;;;;;;4968221;28;21286;-64
2023/09/05 06:00:25;;;;;;;158.48;90.78;;;;;;;;;;4967796;28;20410;-63
2023/09/05 06:02:52;;;;;;;148.38;86.88;;;;;;;;;;4959632;28;20046;-64
2023/09/05 06:05:19;;;;;;;156.43;89.50;;;;;;;;;;4970053;28;20224;-65
2023/09/05 06:07:46;;;;;;;160.82;91.10;;;;;;;;;;4959032;28;20605;-63
2023/09/05 06:10:12;;;;;;;149.75;86.07;;;;;;;;;;4967767;28;20039;-63
2023/09/05 06:12:39;;;;;;;146.60;87.30;;;;;;;;;;4967195;28;20069;-63
2023/09/05 06:15:06;;;;;;;151.95;87.90;;;;;;;;;;4967990;28;20519;-63
2023/09/05 06:17:32;;;;;;;153.65;87.60;;;;;;;;;;4972204;28;20045;-63
2023/09/05 06:19:59;;;;;;;158.63;91.10;;;;;;;;;;4989694;28;20161;-63
2023/09/05 06:22:26;;;;;;;161.10;88.53;;;;;;;;;;4976634;28;20439;-63
2023/09/05 06:24:52;;;;;;;162.43;89.78;;;;;;;;;;5002890;28;20065;-64
2023/09/05 06:27:19;;;;;;;146.25;88.63;;;;;;;;;;4989677;28;20041;-61
2023/09/05 06:29:45;;;;;;;149.48;87.35;;;;;;;;;;4987847;28;20052;-62
2023/09/05 06:32:12;;;;;;;145.98;85.20;;;;;;;;;;4990103;28;20419;-62
2023/09/05 06:34:40;;;;;;;155.57;91.03;;;;;;;;;;4984309;28;21640;-62
2023/09/05 06:37:06;;;;;;;152.52;87.85;;;;;;;;;;4983801;28;20131;-62
2023/09/05 06:39:35;;;;;;;159.43;89.85;;;;;;;;;;4991968;28;20707;-63
2023/09/05 06:42:01;;;;;;;149.63;89.25;;;;;;;;;;4985397;28;20038;-64
2023/09/05 06:44:32;;;;;;;154.85;88.50;;;;;;;;;;4984552;28;20038;-63
2023/09/05 06:46:58;;;;;;;156.38;87.18;;;;;;;;;;4989259;28;20587;-62
2023/09/05 06:49:25;;;;;;;149.80;85.00;;;;;;;;;;4988582;28;20117;-63
2023/09/05 06:51:52;;;;;;;157.00;88.82;;;;;;;;;;4989249;28;20643;-63
2023/09/05 06:54:20;;;;;;;154.55;86.90;;;;;;;;;;4985505;28;20148;-61
2023/09/05 06:56:47;;;;;;;151.43;89.03;;;;;;;;;;4987842;28;20049;-63
2023/09/05 06:59:17;;;;;;;152.20;86.38;;;;;;;;;;4986364;28;20049;-62
2023/09/05 07:01:44;;;;;;;147.85;85.57;;;;;;;;;;4988887;28;20045;-63
2023/09/05 07:04:11;;;;;;;155.02;88.60;;;;;;;;;;4989625;28;20492;-63
2023/09/05 07:06:39;;;;;;;151.90;87.13;;;;;;;;;;4975272;28;20993;-62
2023/09/05 07:09:06;;;;;;;153.48;85.90;;;;;;;;;;4993946;28;20046;-61
2023/09/05 07:11:33;;;;;;;154.48;89.55;;;;;;;;;;4988134;28;20089;-62
2023/09/05 07:13:59;;;;;;;154.45;87.97;;;;;;;;;;4993573;28;20648;-62
2023/09/05 07:16:26;;;;;;;149.98;86.72;;;;;;;;;;4974183;28;20053;-61
2023/09/05 07:18:54;;;;;;;152.20;86.47;;;;;;;;;;4991861;28;20049;-63
2023/09/05 07:21:21;;;;;;;153.60;86.45;;;;;;;;;;4993533;28;20128;-64
2023/09/05 07:23:47;;;;;;;153.75;88.40;;;;;;;;;;4992876;28;20767;-65
2023/09/05 07:26:14;;;;;;;147.80;89.13;;;;;;;;;;4992881;28;20041;-63
2023/09/05 07:28:41;;;;;;;149.95;88.32;;;;;;;;;;4991623;28;20042;-63
2023/09/05 07:31:08;;;;;;;150.35;87.93;;;;;;;;;;4992966;28;20406;-62
2023/09/05 07:33:35;;;;;;;158.10;90.05;;;;;;;;;;4991944;28;20413;-62
2023/09/05 07:36:01;;;;;;;154.52;88.93;;;;;;;;;;4992166;28;20495;-63
2023/09/05 07:38:28;;;;;;;154.70;87.05;;;;;;;;;;4973844;28;20074;-63
2023/09/05 07:41:04;;;;;;;147.00;86.03;;;;;;;;;;4990902;28;20038;-63
2023/09/05 07:43:33;;;;;;;143.20;85.50;;;;;;;;;;4986275;28;20314;-63
2023/09/05 07:46:00;;;;;;;151.02;85.82;;;;;;;;;;4990418;28;20046;-63
2023/09/05 07:48:26;;;;;;;152.73;87.40;;;;;;;;;;4994471;28;20040;-62
2023/09/05 07:51:00;;;;;;;155.40;90.03;;;;;;;;;;4985699;28;20054;-62
2023/09/05 07:53:46;;;;;;;149.25;87.57;;;;;;;;;;4992207;28;20475;-63
2023/09/05 07:56:13;;;;;;;149.07;85.82;;;;;;;;;;4990505;28;21436;-63
2023/09/05 07:58:40;;;;;;;161.15;90.22;;;;;;;;;;4989224;28;20329;-64
2023/09/05 08:01:09;;;;;;;154.68;86.82;;;;;;;;;;4988178;28;20080;-64
2023/09/05 08:03:39;;;;;;;149.93;87.38;;;;;;;;;;4987103;28;20144;-64
2023/09/05 08:06:05;;;;;;;155.48;90.97;;;;;;;;;;4990482;28;20414;-63
2023/09/05 08:08:33;;;;;;;159.48;88.00;;;;;;;;;;4987290;28;20042;-64
2023/09/05 08:10:59;;;;;;;145.02;83.78;;;;;;;;;;4990243;28;20050;-65
2023/09/05 08:13:26;;;;;;;148.93;88.60;;;;;;;;;;5006018;28;20046;-64
2023/09/05 08:15:54;;;;;;;136.90;83.43;;;;;;;;;;4969477;28;20060;-64
2023/09/05 08:18:20;;;;;;;155.20;90.50;;;;;;;;;;4988180;28;20038;-66
2023/09/05 08:20:47;;;;;;;158.20;89.30;;;;;;;;;;4989624;28;20076;-63
2023/09/05 08:23:14;;;;;;;157.95;88.63;;;;;;;;;;4988736;28;20033;-63
2023/09/05 08:25:40;;;;;;;151.25;86.50;;;;;;;;;;4988139;28;20033;-63
2023/09/05 08:28:09;;;;;;;150.13;85.72;;;;;;;;;;4989842;28;20213;-63
2023/09/05 08:30:35;;;;;;;148.48;84.28;;;;;;;;;;4987861;28;20388;-63
2023/09/05 08:33:03;;;;;;;154.10;85.10;;;;;;;;;;4989285;28;20045;-64
2023/09/05 08:35:30;;;;;;;151.07;84.22;;;;;;;;;;5007073;28;20064;-63
2023/09/05 08:38:02;;;;;;;145.35;84.80;;;;;;;;;;4992997;28;20034;-63
2023/09/05 08:40:29;;;;;;;147.32;84.05;;;;;;;;;;5006976;28;20576;-62
2023/09/05 08:42:56;;;;;;;142.35;85.90;;;;;;;;;;4993351;28;20045;-63
2023/09/05 08:45:23;;;;;;;145.60;86.13;;;;;;;;;;4976026;28;20149;-63
2023/09/05 08:47:52;;;;;;;139.63;81.35;;;;;;;;;;4992575;28;20073;-66
2023/09/05 08:50:18;;;;;;;142.77;81.55;;;;;;;;;;5007680;28;20038;-63
2023/09/05 08:52:47;;;;;;;151.48;86.28;;;;;;;;;;4991118;28;20935;-63
2023/09/05 08:55:14;;;;;;;151.82;86.80;;;;;;;;;;4991724;28;20872;-63
2023/09/05 08:57:45;;;;;;;151.35;86.32;;;;;;;;;;4990044;28;20087;-65
2023/09/05 09:00:11;;;;;;;145.00;85.18;;;;;;;;;;5007301;28;20642;-63
2023/09/05 09:02:38;;;;;;;143.50;86.47;;;;;;;;;;5006663;28;21032;-63
2023/09/05 09:05:05;;;;;;;157.82;91.13;;;;;;;;;;4991458;28;20065;-63
2023/09/05 09:07:31;;;;;;;148.93;86.40;;;;;;;;;;5003324;28;20042;-63
2023/09/05 09:09:59;;;;;;;150.60;87.68;;;;;;;;;;4991555;28;20493;-63
2023/09/05 09:12:31;;;;;;;161.88;91.78;;;;;;;;;;5002813;28;20065;-64
2023/09/05 09:15:10;;;;;;;153.18;90.55;;;;;;;;;;5006765;28;20058;-63
2023/09/05 09:17:37;;;;;;;152.00;89.22;;;;;;;;;;4986633;28;20069;-63
2023/09/05 09:20:04;;;;;;;151.90;87.82;;;;;;;;;;5004065;28;20037;-63
2023/09/05 09:22:31;;;;;;;141.90;83.65;;;;;;;;;;4986919;28;20107;-63
2023/09/05 09:24:58;;;;;;;136.20;77.15;;;;;;;;;;5005140;28;20030;-63
2023/09/05 09:27:24;;;;;;;119.60;67.53;;;;;;;;;;4988940;28;20054;-63
2023/09/05 09:29:55;;;;;;;126.63;69.80;;;;;;;;;;4975719;28;20188;-63
2023/09/05 09:32:24;;;;;;;116.65;65.07;;;;;;;;;;4990339;28;20046;-64
2023/09/05 09:34:51;;;;;;;119.82;62.80;;;;;;;;;;4991400;28;20060;-64
2023/09/05 09:37:25;;;;;;;108.72;60.05;;;;;;;;;;5006088;28;20470;-64
2023/09/05 09:39:58;;;;;;;105.90;58.05;;;;;;;;;;4989099;28;20149;-65
2023/09/05 09:42:24;;;;;;;;;;;;;;;;;;4990230;28;21285;-63
2023/09/05 09:44:53;;;;;;;109.55;57.88;;;;;;;;;;4977663;28;20075;-63
2023/09/05 09:47:20;;;;;;;99.15;56.13;;;;;;;;;;4967408;28;20038;-62
2023/09/05 09:49:50;;;;;;;98.65;55.28;;;;;;;;;;4967620;28;20038;-63
2023/09/05 09:52:19;;;;;;;100.32;55.35;;;;;;;;;;4959545;28;20206;-62
2023/09/05 09:54:47;;;;;;;102.63;53.45;;;;;;;;;;4959746;28;20046;-61
2023/09/05 09:57:27;;;;;;;103.15;56.03;;;;;;;;;;4968430;28;20027;-62
2023/09/05 09:59:59;;;;;;;104.68;56.75;;;;;;;;;;4971563;28;20042;-64
2023/09/05 10:02:28;;;;;;;96.95;53.10;;;;;;;;;;4971219;28;20042;-62
2023/09/05 10:05:15;;;;;;;95.82;54.88;;;;;;;;;;4966068;28;20061;-60
2023/09/05 10:07:43;;;;;;;96.25;54.80;;;;;;;;;;4878148;28;20865;-63
2023/09/05 10:10:16;;;;;;;103.45;54.28;;;;;;;;;;4933349;28;20054;-62
2023/09/05 10:12:46;;;;;;;103.80;56.88;;;;;;;;;;4920321;28;20452;-62
2023/09/05 10:15:14;;;;;;;101.22;56.53;;;;;;;;;;4929280;28;20172;-64
2023/09/05 10:17:42;;;;;;;103.40;55.53;;;;;;;;;;4932398;28;20066;-61
2023/09/05 10:20:14;;;;;;;103.55;57.08;;;;;;;;;;4943500;28;20150;-63
2023/09/05 10:22:44;;;;;;;108.28;57.45;;;;;;;;;;4941330;28;20042;-63
2023/09/05 10:25:13;;;;;;;108.50;58.05;;;;;;;;;;4943326;28;20133;-63
2023/09/05 10:27:59;;;;;;;110.85;59.38;;;;;;;;;;4941913;28;20038;-62
2023/09/05 10:30:28;;;;;;;106.57;57.97;;;;;;;;;;4937385;28;20591;-63
2023/09/05 10:32:56;;;;;;;101.78;58.00;;;;;;;;;;4944698;28;20039;-62
2023/09/05 10:35:45;;;;;;;103.90;58.40;;;;;;;;;;4904676;29;20127;-63
2023/09/05 10:38:15;;;;;;;102.78;59.50;;;;;;;;;;4917537;28;20048;-62
2023/09/05 10:40:42;;;;;;;109.45;59.50;;;;;;;;;;4898872;29;20500;-63
2023/09/05 10:43:09;;;;;;;108.07;59.53;;;;;;;;;;4919784;28;20186;-63
2023/09/05 10:45:37;;;;;;;116.55;62.45;;;;;;;;;;4914462;28;20071;-62
2023/09/05 10:48:08;;;;;;;110.85;62.40;;;;;;;;;;4917022;28;20044;-63
2023/09/05 10:50:55;;;;;;;121.28;65.03;;;;;;;;;;4920329;28;20315;-62
2023/09/05 10:53:22;;;;;;;118.65;62.97;;;;;;;;;;4919781;28;20078;-62
2023/09/05 10:55:50;;;;;;;118.93;63.83;;;;;;;;;;4953371;28;20127;-62
2023/09/05 10:58:36;;;;;;;121.32;64.85;;;;;;;;;;4934865;28;20058;-62
2023/09/05 11:01:23;;;;;;;115.05;62.33;;;;;;;;;;4920490;28;20062;-63
2023/09/05 11:03:49;;;;;;;116.05;63.22;;;;;;;;;;4928124;28;20985;-64
2023/09/05 11:06:16;;;;;;;117.57;64.60;;;;;;;;;;4938735;28;20089;-63
2023/09/05 11:08:45;;;;;;;116.63;62.22;;;;;;;;;;4939195;28;21814;-63
2023/09/05 11:11:11;;;;;;;108.72;61.47;;;;;;;;;;4939232;28;20079;-63
2023/09/05 11:13:49;;;;;;;115.47;62.40;;;;;;;;;;4959972;28;20042;-64
2023/09/05 11:16:16;;;;;;;115.18;62.72;;;;;;;;;;4972502;28;21387;-63
2023/09/05 11:18:55;;;;;;;110.60;62.05;;;;;;;;;;4968860;28;20043;-63
2023/09/05 11:21:23;;;;;;;108.38;60.65;;;;;;;;;;4968879;28;20053;-63
2023/09/05 11:23:59;;;;;;;112.00;61.22;;;;;;;;;;4970070;28;20046;-63
2023/09/05 11:26:26;;;;;;;111.45;60.70;;;;;;;;;;4970059;28;20038;-64
2023/09/05 11:28:52;;;;;;;115.35;62.33;;;;;;;;;;4967723;28;20050;-65
2023/09/05 11:31:21;;;;;;;107.82;61.15;;;;;;;;;;4968610;28;20038;-63
2023/09/05 11:33:48;;;;;;;118.90;61.00;;;;;;;;;;4968283;28;20046;-65
2023/09/05 11:36:15;;;;;;;110.00;60.30;;;;;;;;;;4969791;28;20716;-64
2023/09/05 11:38:49;;;;;;;117.88;62.03;;;;;;;;;;4966160;28;20043;-64
2023/09/05 11:41:16;;;;;;;110.00;59.80;;;;;;;;;;4967711;28;20436;-63
2023/09/05 11:43:47;;;;;;;113.38;60.35;;;;;;;;;;4968448;28;20128;-63
2023/09/05 11:46:14;;;;;;;118.72;61.97;;;;;;;;;;4969874;28;20549;-64
2023/09/05 11:48:42;;;;;;;107.35;60.15;;;;;;;;;;4968841;28;20285;-64
2023/09/05 11:51:12;;;;;;;108.75;58.80;;;;;;;;;;4970137;28;20122;-70
2023/09/05 11:53:39;;;;;;;110.68;60.80;;;;;;;;;;4970699;28;20061;-63
2023/09/05 11:56:05;;;;;;;111.70;59.65;;;;;;;;;;4987667;28;20210;-63
2023/09/05 11:58:33;;;;;;;109.47;59.47;;;;;;;;;;4974115;28;20070;-62
2023/09/05 12:01:00;;;;;;;114.50;60.65;;;;;;;;;;4976718;28;20038;-63
2023/09/05 12:03:28;;;;;;;113.00;61.25;;;;;;;;;;4983714;28;20069;-63
2023/09/05 12:05:55;;;;;;;106.97;58.58;;;;;;;;;;4995094;28;20038;-63
2023/09/05 12:08:22;;;;;;;104.85;58.03;;;;;;;;;;4978014;28;20049;-64
2023/09/05 12:10:52;;;;;;;111.05;59.92;;;;;;;;;;5009823;28;20069;-65
2023/09/05 12:13:37;;;;;;;109.32;58.55;;;;;;;;;;5004349;28;20042;-64
2023/09/05 12:16:03;;;;;;;102.80;57.97;;;;;;;;;;4994590;28;20048;-63
2023/09/05 12:18:30;;;;;;;107.82;59.70;;;;;;;;;;4989728;28;20443;-64
2023/09/05 12:21:00;;;;;;;113.13;58.90;;;;;;;;;;4989687;28;20159;-64
2023/09/05 12:23:30;;;;;;;109.47;59.10;;;;;;;;;;4990153;28;20057;-64
2023/09/05 12:26:00;;;;;;;114.22;58.67;;;;;;;;;;4991038;28;20046;-63
2023/09/05 12:28:27;;;;;;;108.55;59.00;;;;;;;;;;4984842;28;20471;-63
2023/09/05 12:31:10;;;;;;;111.65;58.92;;;;;;;;;;4991693;28;20044;-63
2023/09/05 12:33:37;;;;;;;108.50;59.35;;;;;;;;;;4974078;28;20034;-65
2023/09/05 12:36:03;;;;;;;110.53;59.80;;;;;;;;;;4991643;28;20562;-65
2023/09/05 12:38:30;;;;;;;111.55;59.63;;;;;;;;;;4990711;28;20049;-62
2023/09/05 12:40:57;;;;;;;109.32;58.35;;;;;;;;;;4991436;28;20757;-63
2023/09/05 12:43:24;;;;;;;109.65;59.05;;;;;;;;;;4991698;28;20687;-64
2023/09/05 12:45:50;;;;;;;100.65;56.53;;;;;;;;;;4990650;28;20399;-63
2023/09/05 12:48:17;;;;;;;104.10;56.92;;;;;;;;;;4990566;28;20045;-64
2023/09/05 12:50:48;;;;;;;105.22;58.05;;;;;;;;;;4989793;28;20042;-63
2023/09/05 12:53:17;;;;;;;104.55;59.45;;;;;;;;;;4991598;28;21054;-62
2023/09/05 12:55:44;;;;;;;106.10;57.25;;;;;;;;;;4989909;28;20129;-63
2023/09/05 12:58:10;;;;;;;109.97;59.70;;;;;;;;;;4989252;28;20073;-63
2023/09/05 13:00:37;;;;;;;106.22;59.30;;;;;;;;;;4989472;28;20164;-62
2023/09/05 13:03:06;;;;;;;105.70;58.78;;;;;;;;;;4991394;28;20830;-63
2023/09/05 13:05:33;;;;;;;105.97;59.65;;;;;;;;;;4991369;28;20038;-61
2023/09/05 13:08:00;;;;;;;113.90;59.80;;;;;;;;;;4990473;28;20423;-63
2023/09/05 13:10:27;;;;;;;107.65;59.83;;;;;;;;;;4989805;28;20461;-63
2023/09/05 13:12:54;;;;;;;102.60;58.80;;;;;;;;;;4990474;28;20046;-61
2023/09/05 13:15:21;;;;;;;106.13;59.17;;;;;;;;;;4990410;28;20403;-62
2023/09/05 13:17:47;;;;;;;110.55;61.30;;;;;;;;;;4985160;28;20072;-61
2023/09/05 13:20:15;;;;;;;110.63;58.50;;;;;;;;;;4991111;28;20126;-62
2023/09/05 13:22:47;;;;;;;107.85;58.22;;;;;;;;;;4992313;28;20042;-62
2023/09/05 13:25:18;;;;;;;107.33;57.57;;;;;;;;;;4978437;28;20137;-66
2023/09/05 13:27:45;;;;;;;111.22;58.80;;;;;;;;;;4985337;28;20049;-62
2023/09/05 13:30:32;;;;;;;111.10;58.85;;;;;;;;;;4991552;28;20046;-61
2023/09/05 13:32:58;;;;;;;111.35;57.63;;;;;;;;;;4937670;28;20044;-63
2023/09/05 13:35:25;;;;;;;107.70;58.22;;;;;;;;;;4937318;28;20153;-64
2023/09/05 13:37:52;;;;;;;109.32;58.38;;;;;;;;;;4937406;28;20043;-62
2023/09/05 13:40:18;;;;;;;103.80;57.85;;;;;;;;;;4938270;28;20105;-63
2023/09/05 13:42:45;;;;;;;106.88;55.65;;;;;;;;;;4938057;28;20700;-63
2023/09/05 13:45:11;;;;;;;109.18;56.42;;;;;;;;;;4939008;28;20077;-63
2023/09/05 13:47:39;;;;;;;98.95;55.97;;;;;;;;;;4935843;28;20727;-65
2023/09/05 13:50:06;;;;;;;105.03;57.03;;;;;;;;;;4936198;28;21393;-63
2023/09/05 13:52:33;;;;;;;102.85;56.40;;;;;;;;;;4936601;28;20073;-62
2023/09/05 13:54:59;;;;;;;101.03;56.90;;;;;;;;;;4938467;28;20059;-62
2023/09/05 13:57:26;;;;;;;102.68;54.65;;;;;;;;;;4936055;28;20657;-63
2023/09/05 13:59:53;;;;;;;102.95;55.70;;;;;;;;;;4937715;28;20131;-62
2023/09/05 14:02:19;;;;;;;98.93;55.85;;;;;;;;;;4936975;28;20047;-62
2023/09/05 14:04:47;;;;;;;107.30;57.58;;;;;;;;;;4982247;28;21758;-62
2023/09/05 14:07:13;;;;;;;101.10;54.67;;;;;;;;;;4988771;28;20111;-62
2023/09/05 14:09:40;;;;;;;108.43;58.60;;;;;;;;;;4967129;28;20407;-63